Time;durP1;ratioP1;P1;durP2;ratioP2;P2;SDS_P1;SDS_P2;PMS_P1;PMS_P2;Temp;Humidity;BMP_temperature;BMP_pressure;BME280_temperature;BME280_humidity;BME280_pressure;Samples;Min_cycle;Max_cycle;Signal;HPM_P1;HPM_P2
2022/09/04 00:01:47;;;;;;;5.30;4.80;;;;;;;16.62;100.00;155631.97;5089226;28;20481;-76
2022/09/04 00:04:24;;;;;;;5.23;4.60;;;;;;;16.65;100.00;155639.78;5088630;28;20430;-76
2022/09/04 00:06:55;;;;;;;5.17;4.67;;;;;;;16.62;100.00;155631.97;5072247;28;20473;-77
2022/09/04 00:09:28;;;;;;;5.60;5.10;;;;;;;16.61;100.00;155628.03;5088848;28;20422;-77
2022/09/04 00:12:03;;;;;;;6.10;4.67;;;;;;;16.57;100.00;155618.97;5088472;28;20493;-77
2022/09/04 00:14:39;;;;;;;5.97;4.97;;;;;;;16.55;100.00;155613.72;5105374;28;20471;-77
2022/09/04 00:17:09;;;;;;;5.10;4.60;;;;;;;16.54;100.00;155611.16;5073580;28;20436;-77
2022/09/04 00:19:42;;;;;;;5.03;4.53;;;;;;;16.51;100.00;155601.97;5073083;28;20521;-77
2022/09/04 00:22:20;;;;;;;7.60;4.63;;;;;;;16.49;100.00;155598.09;5071981;28;20438;-77
2022/09/04 00:24:52;;;;;;;5.27;4.77;;;;;;;16.49;100.00;155598.09;5072647;28;20513;-77
2022/09/04 00:27:22;;;;;;;6.03;5.43;;;;;;;16.47;100.00;155592.88;5071158;28;20480;-77
2022/09/04 00:29:54;;;;;;;5.53;4.93;;;;;;;16.45;100.00;155587.66;5071363;28;20460;-77
2022/09/04 00:32:33;;;;;;;7.50;5.13;;;;;;;16.41;100.00;155577.28;5088242;28;20470;-77
2022/09/04 00:35:08;;;;;;;6.10;5.00;;;;;;;16.40;100.00;155575.97;5072352;28;20502;-77
2022/09/04 00:37:38;;;;;;;6.63;5.67;;;;;;;16.39;100.00;155572.06;5088219;28;20503;-77
2022/09/04 00:40:09;;;;;;;6.90;6.20;;;;;;;16.39;100.00;155572.06;5054929;28;20434;-77
2022/09/04 00:42:57;;;;;;;7.33;5.17;;;;;;;16.37;100.00;155568.16;5088060;28;20526;-77
2022/09/04 00:45:35;;;;;;;6.53;5.63;;;;;;;16.41;100.00;155577.28;5087642;28;20548;-77
2022/09/04 00:48:55;;;;;;;5.43;4.90;;;;;;;16.37;100.00;155566.84;5072400;28;20421;-77
2022/09/04 00:51:29;;;;;;;6.17;5.57;;;;;;;16.34;100.00;155559.06;5026994;28;20444;-77
2022/09/04 00:54:27;;;;;;;5.57;5.03;;;;;;;16.31;100.00;155551.25;5013309;28;21008;-79
2022/09/04 00:57:12;;;;;;;8.80;6.60;;;;;;;16.25;100.00;155536.97;5061100;28;20568;-79
2022/09/04 01:00:06;;;;;;;5.80;5.20;;;;;;;16.26;100.00;155538.25;5071028;28;20852;-79
2022/09/04 01:02:43;;;;;;;6.40;5.67;;;;;;;16.23;100.00;155531.75;5064479;28;20446;-79
2022/09/04 01:05:19;;;;;;;6.97;6.27;;;;;;;16.25;100.00;155535.66;5087513;28;20476;-79
2022/09/04 01:07:55;;;;;;;6.23;5.63;;;;;;;16.23;100.00;155530.47;5070809;28;20469;-79
2022/09/04 01:10:33;;;;;;;7.07;6.37;;;;;;;16.20;100.00;155522.66;5087694;28;20441;-79
2022/09/04 01:13:06;;;;;;;6.50;5.90;;;;;;;16.20;100.00;155522.66;5087760;28;20504;-79
2022/09/04 01:15:37;;;;;;;7.90;6.90;;;;;;;16.17;100.00;155514.88;5070441;28;20452;-79
2022/09/04 01:18:09;;;;;;;7.70;7.00;;;;;;;16.18;100.00;155518.75;5087386;28;20811;-79
2022/09/04 01:20:53;;;;;;;7.40;6.13;;;;;;;16.16;100.00;155512.25;5070645;28;20468;-79
2022/09/04 01:23:40;;;;;;;6.90;6.20;;;;;;;16.16;100.00;155512.25;5070735;28;20995;-79
2022/09/04 01:26:09;;;;;;;7.00;6.27;;;;;;;16.16;100.00;155512.25;5087321;28;20460;-79
2022/09/04 01:28:42;;;;;;;7.27;6.40;;;;;;;16.14;100.00;155507.06;5087109;28;20542;-79
2022/09/04 01:31:16;;;;;;;5.90;5.40;;;;;;;16.12;100.00;155501.88;5053937;28;20445;-79
2022/09/04 01:33:48;;;;;;;6.90;6.20;;;;;;;16.11;100.00;155499.25;5087166;28;20466;-79
2022/09/04 01:36:19;;;;;;;6.63;5.93;;;;;;;16.07;100.00;155490.13;5086971;28;20489;-79
2022/09/04 01:38:52;;;;;;;8.20;7.40;;;;;;;16.06;100.00;155487.56;5070365;28;20453;-76
2022/09/04 01:41:24;;;;;;;6.60;5.57;;;;;;;16.06;100.00;155486.25;5087105;28;20430;-79
2022/09/04 01:43:51;;;;;;;7.10;6.40;;;;;;;16.03;100.00;155479.75;5071198;28;20494;-79
2022/09/04 01:46:30;;;;;;;6.73;6.13;;;;;;;16.03;100.00;155478.44;5103868;28;20438;-79
2022/09/04 01:49:04;;;;;;;6.57;5.93;;;;;;;16.01;100.00;155473.25;5087496;28;20528;-79
2022/09/04 01:51:38;;;;;;;6.50;5.80;;;;;;;15.99;100.00;155468.06;5087508;28;20798;-79
2022/09/04 01:54:13;;;;;;;6.90;6.00;;;;;;;15.97;100.00;155462.81;5071467;28;20472;-79
2022/09/04 01:56:44;;;;;;;6.23;5.63;;;;;;;15.96;100.00;155460.25;5070073;28;20584;-79
2022/09/04 01:59:17;;;;;;;6.37;5.77;;;;;;;15.93;100.00;155453.75;5070330;28;20422;-79
2022/09/04 02:01:49;;;;;;;7.00;6.07;;;;;;;15.92;100.00;155449.81;5070304;28;20449;-79
2022/09/04 02:04:20;;;;;;;6.77;6.17;;;;;;;15.94;100.00;155455.06;5070400;28;20432;-79
2022/09/04 02:06:53;;;;;;;7.37;6.63;;;;;;;15.91;100.00;155447.25;5087059;28;20533;-79
2022/09/04 02:09:31;;;;;;;7.23;6.27;;;;;;;15.86;100.00;155434.25;5070226;28;20445;-79
2022/09/04 02:12:08;;;;;;;5.53;5.00;;;;;;;15.84;100.00;155431.63;5087174;28;20544;-79
2022/09/04 02:14:41;;;;;;;6.13;5.07;;;;;;;15.84;100.00;155431.63;5071385;28;20444;-79
2022/09/04 02:17:11;;;;;;;5.33;4.83;;;;;;;15.81;100.00;155423.81;5071443;28;20456;-79
2022/09/04 02:19:59;;;;;;;5.70;4.83;;;;;;;15.81;100.00;155422.53;5086909;28;20532;-79
2022/09/04 02:22:30;;;;;;;5.57;5.07;;;;;;;15.78;100.00;155416.03;5084027;28;20541;-78
2022/09/04 02:25:04;;;;;;;6.17;5.13;;;;;;;15.79;100.00;155417.34;5069659;28;20785;-79
2022/09/04 02:27:39;;;;;;;5.33;4.60;;;;;;;15.76;100.00;155409.53;5086627;28;20446;-79
2022/09/04 02:30:09;;;;;;;5.17;4.67;;;;;;;15.74;100.00;155405.66;5071277;28;20446;-79
2022/09/04 02:32:40;;;;;;;4.87;4.47;;;;;;;15.77;100.00;155412.13;5086728;28;20526;-78
2022/09/04 02:35:11;;;;;;;5.03;4.53;;;;;;;15.72;100.00;155400.47;5086375;28;20541;-79
2022/09/04 02:37:48;;;;;;;5.03;4.53;;;;;;;15.71;100.00;155397.84;5087006;28;21035;-79
2022/09/04 02:40:19;;;;;;;7.20;4.47;;;;;;;15.69;100.00;155391.34;5086921;28;20452;-79
2022/09/04 02:42:58;;;;;;;4.87;3.93;;;;;;;15.67;100.00;155387.41;5086681;28;20418;-79
2022/09/04 02:45:29;;;;;;;4.80;4.33;;;;;;;15.65;100.00;155382.22;5066269;28;20442;-79
2022/09/04 02:48:02;;;;;;;4.47;4.07;;;;;;;15.65;100.00;155382.22;5051208;28;20399;-79
2022/09/04 02:50:39;;;;;;;5.17;4.47;;;;;;;15.62;100.00;155374.41;5066399;28;20438;-78
2022/09/04 02:53:13;;;;;;;5.40;4.40;;;;;;;15.59;100.00;155365.34;5050124;28;20502;-78
2022/09/04 02:55:57;;;;;;;4.30;3.90;;;;;;;15.56;100.00;155358.84;5054196;28;20439;-78
2022/09/04 02:58:32;;;;;;;4.40;4.00;;;;;;;15.55;100.00;155356.25;5054547;28;20517;-79
2022/09/04 03:01:05;;;;;;;4.97;4.40;;;;;;;15.53;100.00;155351.06;5080615;28;20563;-78
2022/09/04 03:03:37;;;;;;;5.90;5.20;;;;;;;15.51;100.00;155345.88;5074283;28;20472;-78
2022/09/04 03:06:10;;;;;;;4.73;4.30;;;;;;;15.44;100.00;155327.59;5089788;28;20434;-78
2022/09/04 03:08:39;;;;;;;4.30;3.90;;;;;;;15.42;100.00;155322.41;5073605;28;20488;-78
2022/09/04 03:11:10;;;;;;;8.43;5.40;;;;;;;15.42;100.00;155322.41;5090048;28;20445;-79
2022/09/04 03:13:42;;;;;;;6.43;4.40;;;;;;;15.41;100.00;155319.78;5073279;28;20570;-79
2022/09/04 03:16:16;;;;;;;5.20;4.70;;;;;;;15.39;100.00;155314.59;5072896;28;20449;-78
2022/09/04 03:18:59;;;;;;;4.87;4.47;;;;;;;15.38;100.00;155310.72;5074289;28;20469;-78
2022/09/04 03:21:32;;;;;;;4.83;4.03;;;;;;;15.40;100.00;155317.22;5073265;28;20796;-78
2022/09/04 03:24:03;;;;;;;4.37;3.93;;;;;;;15.39;100.00;155313.28;5074142;28;20454;-78
2022/09/04 03:26:31;;;;;;;4.50;4.10;;;;;;;15.36;100.00;155306.78;5089160;28;20802;-78
2022/09/04 03:29:08;;;;;;;4.83;3.93;;;;;;;15.38;100.00;155310.72;5074004;28;20504;-78
2022/09/04 03:31:41;;;;;;;5.60;4.53;;;;;;;15.35;100.00;155304.22;5074306;28;20537;-78
2022/09/04 03:34:18;;;;;;;4.50;4.10;;;;;;;15.33;100.00;155298.97;5073728;28;20568;-78
2022/09/04 03:36:51;;;;;;;5.30;4.27;;;;;;;15.30;100.00;155289.91;5089078;28;20445;-78
2022/09/04 03:39:25;;;;;;;4.63;4.03;;;;;;;15.24;100.00;155275.63;5072689;28;20833;-78
2022/09/04 03:41:58;;;;;;;5.23;4.00;;;;;;;15.26;100.00;155280.81;5074283;28;20913;-78
2022/09/04 03:44:31;;;;;;;4.30;3.90;;;;;;;15.22;100.00;155271.69;5072418;28;20527;-75
2022/09/04 03:47:03;;;;;;;4.40;4.00;;;;;;;15.21;100.00;155269.13;5089436;28;20442;-78
2022/09/04 03:49:41;;;;;;;4.90;4.10;;;;;;;15.20;100.00;155266.50;5089184;28;20434;-78
2022/09/04 03:52:13;;;;;;;4.17;3.47;;;;;;;15.20;100.00;155265.19;5073528;28;20438;-78
2022/09/04 03:54:51;;;;;;;12.53;4.50;;;;;;;15.22;100.00;155270.44;5089220;28;20464;-78
2022/09/04 03:57:39;;;;;;;4.80;3.83;;;;;;;15.24;100.00;155275.63;5088701;28;21025;-78
2022/09/04 04:00:10;;;;;;;4.50;4.10;;;;;;;15.24;100.00;155275.63;5072146;28;20436;-78
2022/09/04 04:03:13;;;;;;;4.27;3.87;;;;;;;15.22;100.00;155270.44;5072250;28;20458;-78
2022/09/04 04:05:46;;;;;;;5.70;5.20;;;;;;;15.17;100.00;155258.72;5071995;28;20544;-78
2022/09/04 04:08:55;;;;;;;4.60;3.73;;;;;;;15.16;100.00;155254.81;5073339;28;20972;-78
2022/09/04 04:11:38;;;;;;;4.33;3.93;;;;;;;15.10;100.00;155240.53;5068655;28;20485;-78
2022/09/04 04:14:22;;;;;;;4.87;4.37;;;;;;;15.11;100.00;155241.84;5073508;28;20501;-75
2022/09/04 04:17:01;;;;;;;5.17;4.10;;;;;;;15.09;100.00;155236.66;5071911;28;20445;-78
2022/09/04 04:19:39;;;;;;;5.00;4.50;;;;;;;15.12;100.00;155245.72;5088627;28;20780;-78
2022/09/04 04:22:21;;;;;;;4.03;3.60;;;;;;;15.09;100.00;155236.66;5072050;28;20449;-78
2022/09/04 04:25:15;;;;;;;3.90;3.50;;;;;;;15.06;100.00;155228.84;5071561;28;20824;-77
2022/09/04 04:27:52;;;;;;;4.57;4.17;;;;;;;15.05;100.00;155227.53;5101446;28;20457;-77
2022/09/04 04:30:19;;;;;;;4.00;3.60;;;;;;;15.01;100.00;155215.88;5072863;28;20517;-77
2022/09/04 04:33:16;;;;;;;4.37;3.97;;;;;;;14.97;100.00;155205.44;5072858;28;20423;-77
2022/09/04 04:35:48;;;;;;;4.40;4.00;;;;;;;14.96;100.00;155202.81;5084819;28;20949;-77
2022/09/04 04:38:23;;;;;;;5.87;3.90;;;;;;;14.93;100.00;155195.06;5088424;28;20765;-77
2022/09/04 04:41:14;;;;;;;4.33;3.93;;;;;;;14.94;100.00;155197.66;5072832;28;20444;-77
2022/09/04 04:43:51;;;;;;;4.67;4.00;;;;;;;14.93;100.00;155195.06;5088091;28;20454;-77
2022/09/04 04:46:25;;;;;;;4.27;3.87;;;;;;;14.91;100.00;155189.84;5070752;28;20542;-77
2022/09/04 04:49:17;;;;;;;5.27;4.20;;;;;;;14.90;100.00;155188.56;5072618;28;20433;-77
2022/09/04 04:51:59;;;;;;;4.20;3.40;;;;;;;14.91;100.00;155191.16;5071165;28;20540;-77
2022/09/04 04:54:38;;;;;;;4.17;3.73;;;;;;;14.95;100.00;155200.25;5072376;28;20459;-77
2022/09/04 04:57:13;;;;;;;4.43;3.83;;;;;;;14.94;100.00;155198.94;5071978;28;20476;-77
2022/09/04 04:59:43;;;;;;;4.20;3.80;;;;;;;15.00;100.00;155213.25;5071326;28;20477;-77
2022/09/04 05:02:19;;;;;;;5.00;4.10;;;;;;;15.01;100.00;155215.88;5072782;28;20442;-77
2022/09/04 05:04:53;;;;;;;5.53;4.40;;;;;;;14.99;100.00;155211.94;5072139;28;20499;-77
2022/09/04 05:07:30;;;;;;;5.00;4.50;;;;;;;14.99;100.00;155210.63;5070568;28;20430;-77
2022/09/04 05:10:01;;;;;;;4.57;4.07;;;;;;;14.99;100.00;155210.63;5087633;28;20528;-77
2022/09/04 05:12:55;;;;;;;5.17;4.67;;;;;;;14.98;100.00;155209.38;5070810;28;20437;-77
2022/09/04 05:15:26;;;;;;;4.90;4.40;;;;;;;14.99;100.00;155210.63;5087562;28;20615;-77
2022/09/04 05:17:57;;;;;;;4.60;4.20;;;;;;;15.00;100.00;155213.25;5087401;28;20456;-77
2022/09/04 05:20:33;;;;;;;4.53;3.53;;;;;;;15.02;100.00;155218.44;5104650;28;20907;-77
2022/09/04 05:23:12;;;;;;;5.30;4.17;;;;;;;15.03;100.00;155221.03;5087537;28;20545;-77
2022/09/04 05:25:43;;;;;;;4.73;4.33;;;;;;;15.04;100.00;155223.63;5087020;28;20438;-77
2022/09/04 05:28:20;;;;;;;4.53;4.13;;;;;;;15.06;100.00;155228.84;5072149;28;20440;-77
2022/09/04 05:30:51;;;;;;;5.97;3.93;;;;;;;15.08;100.00;155234.03;5053813;28;20488;-77
2022/09/04 05:33:25;;;;;;;4.57;3.93;;;;;;;15.12;100.00;155244.41;5071620;28;20785;-77
2022/09/04 05:35:55;;;;;;;6.03;4.13;;;;;;;15.15;100.00;155252.22;5070404;28;20446;-77
2022/09/04 05:38:28;;;;;;;4.20;3.80;;;;;;;15.20;100.00;155265.19;5087402;28;20441;-77
2022/09/04 05:41:04;;;;;;;7.63;4.80;;;;;;;15.27;100.00;155283.44;5070450;28;20446;-77
2022/09/04 05:43:42;;;;;;;5.50;4.50;;;;;;;15.34;100.00;155300.28;5070570;28;20785;-77
2022/09/04 05:46:18;;;;;;;4.43;4.03;;;;;;;15.40;100.00;155317.22;5070251;28;20800;-77
2022/09/04 05:48:51;;;;;;;4.80;4.10;;;;;;;15.54;100.00;155352.38;5071791;28;20424;-77
2022/09/04 05:51:42;;;;;;;4.80;4.40;;;;;;;15.79;100.00;155417.34;5070277;28;20511;-77
2022/09/04 05:54:32;;;;;;;4.90;4.47;;;;;;;16.17;100.00;155514.88;5087293;28;20466;-77
2022/09/04 05:57:06;;;;;;;8.33;4.33;;;;;;;16.44;100.00;155585.09;5069791;28;20521;-77
2022/09/04 05:59:44;;;;;;;6.10;4.93;;;;;;;16.67;100.00;155644.97;5070163;28;20429;-77
2022/09/04 06:02:26;;;;;;;4.80;4.40;;;;;;;17.01;100.00;155733.44;5087321;28;20932;-77
2022/09/04 06:05:09;;;;;;;5.80;5.03;;;;;;;17.35;100.00;155819.31;5071901;28;20501;-77
2022/09/04 06:07:44;;;;;;;6.80;4.83;;;;;;;17.66;100.00;155900.06;5086803;28;20441;-75
2022/09/04 06:10:14;;;;;;;4.57;4.13;;;;;;;17.78;100.00;155931.31;5070289;28;20414;-75
2022/09/04 06:13:16;;;;;;;6.73;4.47;;;;;;;18.11;100.00;156017.25;5071412;28;20501;-75
2022/09/04 06:15:53;;;;;;;5.67;4.00;;;;;;;18.32;100.00;156069.38;5057786;28;20487;-75
2022/09/04 06:18:38;;;;;;;4.53;4.13;;;;;;;18.49;100.00;156114.97;5087027;28;20433;-75
2022/09/04 06:21:35;;;;;;;4.70;4.17;;;;;;;18.68;100.00;156163.19;5086977;28;20445;-75
2022/09/04 06:24:16;;;;;;;4.30;3.90;;;;;;;18.99;100.00;156242.66;5086652;28;20427;-75
2022/09/04 06:27:07;;;;;;;5.07;4.07;;;;;;;19.20;100.00;156298.69;5086491;28;20438;-75
2022/09/04 06:29:49;;;;;;;4.03;3.63;;;;;;;19.52;100.00;156380.84;5089476;28;20500;-75
2022/09/04 06:32:41;;;;;;;3.97;3.60;;;;;;;19.77;100.00;156444.75;5090901;28;21025;-75
2022/09/04 06:35:18;;;;;;;4.40;4.00;;;;;;;20.01;100.00;156508.59;5075102;28;20453;-76
2022/09/04 06:37:55;;;;;;;5.07;4.20;;;;;;;20.37;100.00;156599.97;5090198;28;20433;-76
2022/09/04 06:40:34;;;;;;;4.40;3.77;;;;;;;20.82;100.00;156716.06;5090479;28;20445;-76
2022/09/04 06:43:08;;;;;;;4.30;3.90;;;;;;;21.01;100.00;156766.97;5074763;28;20433;-76
2022/09/04 06:45:46;;;;;;;4.00;3.70;;;;;;;21.30;100.00;156841.41;5073712;28;20487;-76
2022/09/04 06:48:21;;;;;;;3.90;3.60;;;;;;;21.56;99.25;156907.97;5073353;28;20791;-76
2022/09/04 06:50:55;;;;;;;3.57;3.27;;;;;;;21.86;97.50;156986.38;5074781;28;20429;-76
2022/09/04 06:53:34;;;;;;;4.10;3.53;;;;;;;22.18;96.16;157068.63;5074742;28;20414;-76
2022/09/04 06:56:11;;;;;;;3.43;3.10;;;;;;;22.45;94.55;157139.16;5074143;28;20974;-76
2022/09/04 06:59:00;;;;;;;4.43;4.03;;;;;;;22.62;92.97;157183.56;5090185;28;20533;-76
2022/09/04 07:01:39;;;;;;;3.33;3.03;;;;;;;22.97;91.41;157275.09;5075006;28;20433;-76
2022/09/04 07:04:13;;;;;;;4.00;3.60;;;;;;;23.09;87.73;157303.84;5090476;28;20433;-76
2022/09/04 07:06:51;;;;;;;3.77;3.47;;;;;;;23.30;86.93;157360.00;5072709;28;20510;-76
2022/09/04 07:09:21;;;;;;;3.77;3.43;;;;;;;23.38;87.68;157379.63;5073185;28;20784;-76
2022/09/04 07:12:03;;;;;;;3.40;3.10;;;;;;;23.34;87.21;157369.16;5073235;28;20537;-76
2022/09/04 07:15:05;;;;;;;3.40;3.10;;;;;;;23.50;88.07;157412.34;5073015;28;20469;-76
2022/09/04 07:17:34;;;;;;;3.93;3.53;;;;;;;23.64;87.68;157447.66;5052455;28;20442;-77
2022/09/04 07:20:08;;;;;;;4.37;3.97;;;;;;;23.71;87.94;157464.63;5086483;28;20813;-78
2022/09/04 07:22:53;;;;;;;3.33;3.03;;;;;;;23.68;84.49;157456.78;5052819;28;20857;-75
2022/09/04 07:25:25;;;;;;;4.10;3.70;;;;;;;23.70;84.68;157463.31;5099823;28;20544;-78
2022/09/04 07:28:10;;;;;;;3.50;3.20;;;;;;;23.86;83.14;157505.16;5074348;28;20419;-78
2022/09/04 07:30:42;;;;;;;3.47;3.17;;;;;;;24.04;80.86;157550.94;5074839;28;20499;-76
2022/09/04 07:33:14;;;;;;;3.90;3.60;;;;;;;24.20;81.85;157594.09;5073978;28;20438;-76
2022/09/04 07:35:43;;;;;;;4.23;3.93;;;;;;;24.32;81.98;157624.22;5089694;28;20473;-76
2022/09/04 07:38:16;;;;;;;4.00;3.70;;;;;;;24.22;82.24;157598.06;5072237;28;20488;-76
2022/09/04 07:40:45;;;;;;;4.30;3.90;;;;;;;24.47;79.08;157662.13;5073997;28;20433;-77
2022/09/04 07:43:20;;;;;;;4.27;3.97;;;;;;;24.67;79.15;157714.47;5073963;28;20468;-76
2022/09/04 07:45:49;;;;;;;4.57;3.97;;;;;;;24.49;82.29;157668.66;5074027;28;20487;-76
2022/09/04 07:48:27;;;;;;;4.20;3.90;;;;;;;24.54;80.09;157681.72;5073238;28;20441;-76
2022/09/04 07:51:08;;;;;;;4.03;3.67;;;;;;;24.79;79.73;157747.22;5089170;28;20441;-76
2022/09/04 07:53:54;;;;;;;3.80;3.50;;;;;;;24.85;76.63;157761.59;5073842;28;20434;-76
2022/09/04 07:56:25;;;;;;;3.73;3.43;;;;;;;25.07;77.77;157819.16;5073281;28;20939;-79
2022/09/04 07:59:40;;;;;;;4.00;3.50;;;;;;;25.30;76.87;157879.38;5073816;28;20438;-79
2022/09/04 08:02:23;;;;;;;3.70;3.40;;;;;;;25.13;75.60;157834.84;4978483;28;20452;-79
2022/09/04 08:05:24;;;;;;;3.50;3.20;;;;;;;25.09;76.20;157823.09;5011459;28;20419;-77
2022/09/04 08:08:30;;;;;;;4.10;3.70;;;;;;;25.07;73.33;157819.16;5024748;28;20445;-77
2022/09/04 08:11:08;;;;;;;3.60;3.30;;;;;;;25.18;74.82;157847.94;5069807;28;20527;-77
2022/09/04 08:14:01;;;;;;;4.23;3.93;;;;;;;25.31;72.71;157880.69;5073111;28;20452;-76
2022/09/04 08:16:34;;;;;;;5.13;4.10;;;;;;;25.40;73.15;157904.22;5068734;28;20814;-79
2022/09/04 08:19:21;;;;;;;4.27;3.87;;;;;;;25.52;75.03;157935.72;5071857;28;20433;-78
2022/09/04 08:21:48;;;;;;;4.10;3.80;;;;;;;25.69;72.76;157980.19;5073674;28;20434;-79
2022/09/04 08:24:32;;;;;;;4.40;4.00;;;;;;;25.95;71.66;158046.94;5070544;28;20937;-79
2022/09/04 08:27:09;;;;;;;4.80;4.17;;;;;;;26.09;68.13;158083.63;5073047;28;20441;-77
2022/09/04 08:29:53;;;;;;;3.97;3.67;;;;;;;26.02;70.30;158066.63;5088483;28;20433;-79
2022/09/04 08:32:45;;;;;;;3.67;3.00;;;;;;;25.97;68.53;158052.22;5071589;28;20422;-78
2022/09/04 08:35:20;;;;;;;3.63;3.33;;;;;;;25.90;68.78;158033.84;5028321;28;20611;-79
2022/09/04 08:38:00;;;;;;;4.40;4.00;;;;;;;25.66;70.15;157971.00;5087846;28;20473;-79
2022/09/04 08:40:59;;;;;;;3.80;3.40;;;;;;;25.77;69.02;158001.13;5072828;28;20476;-78
2022/09/04 08:43:35;;;;;;;3.40;3.10;;;;;;;25.73;69.97;157989.38;5088623;28;20929;-78
2022/09/04 08:46:28;;;;;;;3.43;3.17;;;;;;;25.79;69.76;158005.03;5105457;28;20962;-78
2022/09/04 08:49:47;;;;;;;5.33;2.80;;;;;;;25.75;69.26;157995.91;5088099;28;20909;-79
2022/09/04 08:52:45;;;;;;;3.20;2.90;;;;;;;25.65;67.82;157968.44;5045603;28;20449;-78
2022/09/04 08:55:32;;;;;;;4.07;3.70;;;;;;;25.60;70.78;157955.34;5071149;28;20474;-78
2022/09/04 08:58:35;;;;;;;3.20;2.90;;;;;;;25.07;72.84;157817.88;5087415;28;20509;-76
2022/09/04 09:01:17;;;;;;;4.20;3.90;;;;;;;24.45;74.98;157656.91;5052618;28;20541;-76
2022/09/04 09:04:04;;;;;;;4.17;3.63;;;;;;;24.08;78.08;157562.75;5072383;28;20505;-79
2022/09/04 09:07:13;;;;;;;3.90;3.60;;;;;;;23.66;78.00;157452.88;5072125;28;20438;-79
2022/09/04 09:10:15;;;;;;;3.87;3.57;;;;;;;23.50;80.54;157412.34;5061187;28;20932;-79
2022/09/04 09:13:02;;;;;;;3.63;3.33;;;;;;;23.38;80.01;157380.97;5070804;28;20552;-78
2022/09/04 09:15:49;;;;;;;3.60;3.30;;;;;;;23.39;80.71;157382.28;5070656;28;20517;-78
2022/09/04 09:18:31;;;;;;;4.13;3.70;;;;;;;22.96;82.49;157272.44;5071671;28;20461;-78
2022/09/04 09:21:07;;;;;;;3.90;3.60;;;;;;;22.74;83.68;157214.94;5087777;28;20438;-78
2022/09/04 09:23:40;;;;;;;4.10;3.70;;;;;;;22.58;83.99;157173.13;5070553;28;20797;-78
2022/09/04 09:26:27;;;;;;;5.83;3.63;;;;;;;22.48;85.54;157146.97;5087827;28;20460;-78
2022/09/04 09:29:19;;;;;;;4.33;3.57;;;;;;;22.48;84.11;157146.97;5053277;28;20468;-78
2022/09/04 09:32:24;;;;;;;4.43;4.07;;;;;;;22.17;87.39;157067.31;5087517;28;20524;-78
2022/09/04 09:35:24;;;;;;;4.43;4.03;;;;;;;22.00;88.57;157021.63;5087205;28;20535;-77
2022/09/04 09:38:12;;;;;;;3.90;3.60;;;;;;;21.92;89.96;157000.72;5104048;28;20470;-77
2022/09/04 09:41:11;;;;;;;4.30;3.50;;;;;;;21.97;87.41;157013.78;5071981;28;20430;-77
2022/09/04 09:44:25;;;;;;;4.30;3.90;;;;;;;22.18;86.02;157068.63;5070012;28;20449;-78
2022/09/04 09:50:21;;;;;;;3.80;3.40;;;;;;;22.81;82.79;157233.25;5069577;27;21019;-76
2022/09/04 09:53:16;;;;;;;4.57;3.30;;;;;;;22.81;82.08;157231.94;5069094;28;20978;-78
2022/09/04 09:55:58;;;;;;;3.57;3.20;;;;;;;22.78;83.16;157225.41;5067731;28;20451;-78
2022/09/04 09:58:44;;;;;;;3.27;2.97;;;;;;;22.78;78.92;157225.41;5067245;28;20564;-76
2022/09/04 10:01:24;;;;;;;4.93;3.10;;;;;;;22.73;77.52;157212.34;5068055;28;20771;-76
2022/09/04 10:04:23;;;;;;;2.90;2.60;;;;;;;22.73;78.74;157211.03;5084443;28;20526;-76
2022/09/04 10:07:09;;;;;;;4.17;3.40;;;;;;;22.55;78.02;157165.28;5068307;28;20446;-76
2022/09/04 10:10:03;;;;;;;4.77;2.90;;;;;;;22.60;78.94;157177.03;5084375;28;20535;-76
2022/09/04 10:12:46;;;;;;;3.07;2.60;;;;;;;22.77;77.71;157222.78;5066780;28;20508;-77
2022/09/04 10:15:28;;;;;;;2.73;2.53;;;;;;;22.86;77.84;157245.00;5084257;28;20441;-76
2022/09/04 10:18:18;;;;;;;2.80;2.50;;;;;;;23.11;77.40;157310.38;5083952;28;20451;-77
2022/09/04 10:21:10;;;;;;;3.03;2.73;;;;;;;23.10;74.94;157306.41;5024281;28;20541;-77
2022/09/04 10:23:53;;;;;;;3.60;2.87;;;;;;;23.16;75.39;157323.44;5083536;28;20836;-77
2022/09/04 10:26:49;;;;;;;3.60;2.50;;;;;;;23.18;75.42;157327.34;5084109;28;20430;-76
2022/09/04 10:29:36;;;;;;;3.17;2.47;;;;;;;22.88;74.11;157251.53;5068168;28;20535;-77
2022/09/04 10:32:33;;;;;;;3.40;2.60;;;;;;;22.90;75.78;157255.50;5062766;28;20470;-77
2022/09/04 10:35:18;;;;;;;2.53;2.33;;;;;;;22.94;75.96;157267.25;5062344;28;20656;-77
2022/09/04 10:37:58;;;;;;;3.07;2.77;;;;;;;22.74;75.29;157214.94;5083269;28;20438;-77
2022/09/04 10:40:37;;;;;;;2.73;2.53;;;;;;;22.71;73.65;157207.16;5067751;28;20434;-77
2022/09/04 10:43:30;;;;;;;2.27;2.00;;;;;;;22.76;71.40;157220.22;5084054;28;20454;-77
2022/09/04 10:46:02;;;;;;;3.37;2.60;;;;;;;22.63;70.83;157186.25;5062653;28;20492;-77
2022/09/04 10:48:48;;;;;;;3.60;3.03;;;;;;;22.73;71.01;157212.34;5082955;28;20576;-77
2022/09/04 10:51:33;;;;;;;2.30;2.10;;;;;;;22.97;71.67;157275.09;5083513;28;20457;-77
2022/09/04 10:54:49;;;;;;;2.50;2.30;;;;;;;23.21;69.98;157335.19;5068162;28;20473;-77
2022/09/04 10:57:28;;;;;;;2.40;2.20;;;;;;;23.09;70.00;157305.09;5067276;28;20862;-77
2022/09/04 11:00:06;;;;;;;3.20;2.40;;;;;;;23.10;70.07;157306.41;5078537;28;20545;-78
2022/09/04 11:03:11;;;;;;;2.70;2.37;;;;;;;23.14;69.30;157318.16;5054441;28;20461;-77
2022/09/04 11:06:07;;;;;;;2.27;2.07;;;;;;;23.36;69.58;157375.69;5040569;28;20434;-77
2022/09/04 11:09:05;;;;;;;2.60;2.40;;;;;;;23.28;69.78;157353.47;5052769;28;20528;-77
2022/09/04 11:12:17;;;;;;;3.13;2.10;;;;;;;23.44;68.97;157395.34;5051438;28;20537;-77
2022/09/04 11:14:57;;;;;;;2.77;2.47;;;;;;;23.42;68.86;157390.13;5018012;28;20458;-77
2022/09/04 11:17:43;;;;;;;2.50;2.30;;;;;;;23.52;66.38;157416.25;5054012;28;20509;-78
2022/09/04 11:20:49;;;;;;;2.30;2.10;;;;;;;23.24;66.23;157343.03;5069625;28;20443;-77
2022/09/04 11:23:51;;;;;;;2.63;2.30;;;;;;;23.18;72.24;157328.66;5053941;28;20446;-77
2022/09/04 11:26:38;;;;;;;3.20;2.07;;;;;;;23.26;66.58;157348.25;5034955;28;20443;-78
2022/09/04 11:29:25;;;;;;;2.60;1.90;;;;;;;23.18;64.11;157327.34;5053932;28;20560;-78
2022/09/04 11:32:11;;;;;;;2.10;1.90;;;;;;;23.34;65.23;157369.16;5045676;28;20451;-78
2022/09/04 11:35:20;;;;;;;3.37;1.90;;;;;;;23.39;63.26;157382.28;5054310;28;20434;-78
2022/09/04 11:38:08;;;;;;;4.10;2.27;;;;;;;23.49;66.85;157408.41;5045365;28;20526;-78
2022/09/04 11:41:07;;;;;;;3.60;3.30;;;;;;;23.41;62.87;157388.81;5052421;28;20886;-78
2022/09/04 11:43:53;;;;;;;3.33;2.20;;;;;;;23.43;62.68;157392.75;5054138;28;20505;-78
2022/09/04 11:46:36;;;;;;;3.63;2.20;;;;;;;23.61;64.92;157439.81;5053982;28;20461;-78
2022/09/04 11:49:17;;;;;;;2.40;1.90;;;;;;;23.78;64.18;157484.22;5068399;28;20483;-78
2022/09/04 11:52:08;;;;;;;2.03;1.83;;;;;;;23.84;62.99;157498.63;5069090;28;20462;-78
2022/09/04 11:55:08;;;;;;;2.50;2.30;;;;;;;23.96;62.48;157531.28;5052324;28;20451;-78
2022/09/04 11:57:46;;;;;;;2.30;2.10;;;;;;;24.01;61.79;157544.34;5068477;28;20525;-77
2022/09/04 12:00:14;;;;;;;2.20;2.00;;;;;;;24.19;57.01;157591.53;5053450;28;20923;-78
2022/09/04 12:03:01;;;;;;;2.40;2.00;;;;;;;24.03;57.71;157549.63;5053402;28;20433;-77
2022/09/04 12:05:44;;;;;;;2.40;2.20;;;;;;;23.96;59.35;157531.28;5051809;28;20447;-78
2022/09/04 12:08:36;;;;;;;2.43;2.20;;;;;;;23.99;60.83;157539.13;5053120;28;20537;-78
2022/09/04 12:11:18;;;;;;;2.10;1.90;;;;;;;24.14;60.71;157578.47;5068231;28;21125;-78
2022/09/04 12:14:04;;;;;;;2.17;1.63;;;;;;;24.28;66.79;157612.44;5068395;28;20450;-78
2022/09/04 12:16:50;;;;;;;2.00;1.80;;;;;;;24.38;63.71;157638.59;5053346;28;20416;-77
2022/09/04 12:19:43;;;;;;;2.10;1.87;;;;;;;24.51;62.22;157672.59;5068291;28;20456;-78
2022/09/04 12:22:42;;;;;;;2.10;1.80;;;;;;;24.38;58.82;157639.91;5050774;28;20802;-78
2022/09/04 12:25:28;;;;;;;2.40;2.03;;;;;;;24.38;60.99;157639.91;5051227;28;20918;-78
2022/09/04 12:28:28;;;;;;;2.10;1.90;;;;;;;24.34;58.84;157628.13;5052989;28;20478;-78
2022/09/04 12:31:06;;;;;;;2.27;2.07;;;;;;;24.20;58.40;157594.09;5051628;28;20530;-78